Карточка аэропорта USRR

Внимание!
Информация на этой странице в стадии наполнения.
Если вы не увидели какой-то информации, или заметили неточность - пожалуйста сообщите нам!
Спасибо!
Команда RU-STAFF
Название аэропортаСургут
Название аэропорта (англ.)Surgut
Превышение196 ft. (59.7 m.)
Координаты61°20.502', 73°24.168'
Высота перехода700m
Эшелон переходаQFE>=742mm:FL040; QFE<=742mm:FL050
Коды ответчика5570-5577
Зона ОрВДТюмень РПИ (USTV)
Данные METARUSRR 260100Z 03003MPS 9999 SCT004 BKN020CB 04/03 Q1003 R25/290055 NOSIG RMK QFE747
Проноз погоды (TAF)USRR 251942Z 2521/2621 31003MPS 2100 -SHRA BR BKN004 BKN016CB TEMPO 2521/2606 VRB01MPS 0200 FG VV002 FM260600 35005G10MPS 9999 FEW011 SCT016 TEMPO 2606/2612 5000 -SHRA FEW005 SCT016CB
NOTAMshow/hide NOTAM
AWOS   TABLE

Информация о ВПП

ВПП Длина ВПП (м.) Покрытие Курс ВПП Частота ILS
072780Асфальтобетон73110.5
252780Асфальтобетон253109.1

Диспетчерские позиции

Позывной Наименование органа УВД Частота
USRR_APPСургут-Подход129.300
USRR_TWRСургут-Вышка120.800
USRR_R_APPСургут - Круг120.300



Спутниковое изображение